Aviation weather information 2020-04-03 06:52 UTC

TAF(FTEO31)
FTEO31 EETN 030500
TAF EETN 030515Z 0306/0406 23015G25KT 9999 BKN015 BKN022 TEMPO
     0306/0310 24020G32KT 2000 SHRASN BKN006 SCT015CB TEMPO 0310/0314
     28025G40KT 3000 SHSNRA BKN005 BKN013CB BECMG 0314/0316 28014KT
     SCT025 BECMG 0319/0321 22007KT PROB40 TEMPO 0323/0404 2000 BR
     BKN003=

TAF(FTEO33)
FTEO33 EEEI 030530
TAF EEEI 030530Z 0306/0406 24018G28KT 9999 SCT012 BKN025 TEMPO
     0308/0315 27023G38 5000 SHSNRA BKN005 SCT015CB BECMG 0317/0319
     28012KT FEW025= 

SIGMET(WSEO31)
WSEO31 EETN 030640
EETT SIGMET U01 VALID 030740/031000 EEMH-
EETT TALLINN FIR SEV TURB FCST W OF E024 SFC/3000FT MOV E 5KT NC=

Weather observation (METAR/SPECI)
METAR EETN 030650Z 22014KT 9999 SCT016 BKN023 03/M01 Q0977 NOSIG=
METAR EEEI 030650Z 21016G26KT 9999 BKN025 BKN034 03/M01 Q0978
R24/290095 NOSIG=
METAR EETU 030650Z AUTO 21020KT 9999 BKN026/// 04/M00 Q0983=
METAR EEPU 030550Z NIL=
SPECI EEKE 030650Z AUTO 25015G25KT 220V290 9999NDV RA OVC018 02/01
Q0982=
METAR EEKA 030550Z NIL=